sensor_id;sensor_type;location;lat;lon;timestamp;P1;durP1;ratioP1;P2;durP2;ratioP2
17864;SDS011;9058;52.018;4.202;2023-01-28T00:00:35;11.90;;;10.13;;
17864;SDS011;9058;52.018;4.202;2023-01-28T00:03:02;13.27;;;9.77;;
17864;SDS011;9058;52.018;4.202;2023-01-28T00:05:28;12.83;;;9.67;;
17864;SDS011;9058;52.018;4.202;2023-01-28T00:07:56;12.37;;;10.00;;
17864;SDS011;9058;52.018;4.202;2023-01-28T00:10:23;13.00;;;9.53;;
17864;SDS011;9058;52.018;4.202;2023-01-28T00:12:49;12.17;;;9.30;;
17864;SDS011;9058;52.018;4.202;2023-01-28T00:15:16;13.20;;;9.97;;
17864;SDS011;9058;52.018;4.202;2023-01-28T00:17:43;12.33;;;10.00;;
17864;SDS011;9058;52.018;4.202;2023-01-28T00:20:10;11.97;;;9.40;;
17864;SDS011;9058;52.018;4.202;2023-01-28T00:22:37;12.10;;;9.67;;
17864;SDS011;9058;52.018;4.202;2023-01-28T00:25:04;14.83;;;11.23;;
17864;SDS011;9058;52.018;4.202;2023-01-28T00:27:31;12.60;;;10.73;;
17864;SDS011;9058;52.018;4.202;2023-01-28T00:29:57;13.43;;;10.67;;
17864;SDS011;9058;52.018;4.202;2023-01-28T00:32:24;15.17;;;10.37;;
17864;SDS011;9058;52.018;4.202;2023-01-28T00:34:51;14.77;;;11.20;;
17864;SDS011;9058;52.018;4.202;2023-01-28T00:37:17;13.03;;;10.87;;
17864;SDS011;9058;52.018;4.202;2023-01-28T00:39:44;12.23;;;9.00;;
17864;SDS011;9058;52.018;4.202;2023-01-28T00:42:12;10.50;;;8.33;;
17864;SDS011;9058;52.018;4.202;2023-01-28T00:44:38;9.53;;;8.40;;
17864;SDS011;9058;52.018;4.202;2023-01-28T00:47:04;11.37;;;9.50;;
17864;SDS011;9058;52.018;4.202;2023-01-28T00:49:31;11.70;;;9.53;;
17864;SDS011;9058;52.018;4.202;2023-01-28T00:51:58;12.13;;;9.90;;
17864;SDS011;9058;52.018;4.202;2023-01-28T00:54:25;10.03;;;9.03;;
17864;SDS011;9058;52.018;4.202;2023-01-28T00:56:51;10.87;;;9.43;;
17864;SDS011;9058;52.018;4.202;2023-01-28T00:59:20;11.70;;;9.50;;
17864;SDS011;9058;52.018;4.202;2023-01-28T01:01:47;9.90;;;8.43;;
17864;SDS011;9058;52.018;4.202;2023-01-28T01:04:13;11.10;;;8.90;;
17864;SDS011;9058;52.018;4.202;2023-01-28T01:06:50;11.27;;;9.73;;
17864;SDS011;9058;52.018;4.202;2023-01-28T01:09:17;10.77;;;9.63;;
17864;SDS011;9058;52.018;4.202;2023-01-28T01:11:43;10.73;;;8.93;;
17864;SDS011;9058;52.018;4.202;2023-01-28T01:14:10;11.60;;;9.30;;
17864;SDS011;9058;52.018;4.202;2023-01-28T01:16:38;13.57;;;9.73;;
17864;SDS011;9058;52.018;4.202;2023-01-28T01:19:04;10.53;;;9.43;;
17864;SDS011;9058;52.018;4.202;2023-01-28T01:21:31;10.37;;;8.80;;
17864;SDS011;9058;52.018;4.202;2023-01-28T01:24:00;11.63;;;10.03;;
17864;SDS011;9058;52.018;4.202;2023-01-28T01:26:27;12.67;;;9.97;;
17864;SDS011;9058;52.018;4.202;2023-01-28T01:28:54;11.10;;;8.77;;
17864;SDS011;9058;52.018;4.202;2023-01-28T01:31:20;10.13;;;9.00;;
17864;SDS011;9058;52.018;4.202;2023-01-28T01:33:49;12.17;;;8.83;;
17864;SDS011;9058;52.018;4.202;2023-01-28T01:36:16;12.00;;;9.13;;
17864;SDS011;9058;52.018;4.202;2023-01-28T01:38:44;9.70;;;8.60;;
17864;SDS011;9058;52.018;4.202;2023-01-28T01:41:12;9.93;;;8.60;;
17864;SDS011;9058;52.018;4.202;2023-01-28T01:43:45;9.80;;;8.50;;
17864;SDS011;9058;52.018;4.202;2023-01-28T01:46:11;10.53;;;9.43;;
17864;SDS011;9058;52.018;4.202;2023-01-28T01:48:38;9.47;;;8.47;;
17864;SDS011;9058;52.018;4.202;2023-01-28T01:51:07;10.23;;;9.17;;
17864;SDS011;9058;52.018;4.202;2023-01-28T01:53:34;9.03;;;8.13;;
17864;SDS011;9058;52.018;4.202;2023-01-28T01:56:03;9.97;;;8.63;;
17864;SDS011;9058;52.018;4.202;2023-01-28T01:58:32;10.23;;;9.17;;
17864;SDS011;9058;52.018;4.202;2023-01-28T02:00:59;8.90;;;8.10;;
17864;SDS011;9058;52.018;4.202;2023-01-28T02:03:27;9.27;;;8.37;;
17864;SDS011;9058;52.018;4.202;2023-01-28T02:05:55;8.90;;;8.00;;
17864;SDS011;9058;52.018;4.202;2023-01-28T02:08:23;9.60;;;8.20;;
17864;SDS011;9058;52.018;4.202;2023-01-28T02:10:52;8.90;;;7.37;;
17864;SDS011;9058;52.018;4.202;2023-01-28T02:13:20;10.67;;;8.10;;
17864;SDS011;9058;52.018;4.202;2023-01-28T02:15:48;9.27;;;8.27;;
17864;SDS011;9058;52.018;4.202;2023-01-28T02:18:14;8.63;;;7.73;;
17864;SDS011;9058;52.018;4.202;2023-01-28T02:20:47;9.57;;;8.57;;
17864;SDS011;9058;52.018;4.202;2023-01-28T02:23:21;9.33;;;8.30;;
17864;SDS011;9058;52.018;4.202;2023-01-28T02:26:00;9.50;;;7.60;;
17864;SDS011;9058;52.018;4.202;2023-01-28T02:28:32;8.97;;;7.90;;
17864;SDS011;9058;52.018;4.202;2023-01-28T02:31:03;8.67;;;7.87;;
17864;SDS011;9058;52.018;4.202;2023-01-28T02:33:31;9.70;;;8.70;;
17864;SDS011;9058;52.018;4.202;2023-01-28T02:36:01;8.63;;;7.73;;
17864;SDS011;9058;52.018;4.202;2023-01-28T02:38:30;9.30;;;8.40;;
17864;SDS011;9058;52.018;4.202;2023-01-28T02:40:58;7.40;;;6.70;;
17864;SDS011;9058;52.018;4.202;2023-01-28T02:43:28;8.90;;;8.00;;
17864;SDS011;9058;52.018;4.202;2023-01-28T02:45:57;9.87;;;7.93;;
17864;SDS011;9058;52.018;4.202;2023-01-28T02:48:42;8.93;;;8.03;;
17864;SDS011;9058;52.018;4.202;2023-01-28T02:51:09;9.67;;;8.67;;
17864;SDS011;9058;52.018;4.202;2023-01-28T02:53:41;11.03;;;9.20;;
17864;SDS011;9058;52.018;4.202;2023-01-28T02:56:12;9.87;;;8.80;;
17864;SDS011;9058;52.018;4.202;2023-01-28T02:58:41;10.47;;;8.83;;
17864;SDS011;9058;52.018;4.202;2023-01-28T03:01:12;11.00;;;9.90;;
17864;SDS011;9058;52.018;4.202;2023-01-28T03:03:42;10.33;;;9.23;;
17864;SDS011;9058;52.018;4.202;2023-01-28T03:06:10;8.77;;;7.87;;
17864;SDS011;9058;52.018;4.202;2023-01-28T03:08:39;9.10;;;8.20;;
17864;SDS011;9058;52.018;4.202;2023-01-28T03:11:26;10.73;;;9.07;;
17864;SDS011;9058;52.018;4.202;2023-01-28T03:14:11;10.50;;;8.50;;
17864;SDS011;9058;52.018;4.202;2023-01-28T03:16:58;9.73;;;8.73;;
17864;SDS011;9058;52.018;4.202;2023-01-28T03:19:42;10.50;;;8.27;;
17864;SDS011;9058;52.018;4.202;2023-01-28T03:22:26;9.53;;;7.20;;
17864;SDS011;9058;52.018;4.202;2023-01-28T03:25:11;9.70;;;7.80;;
17864;SDS011;9058;52.018;4.202;2023-01-28T03:27:58;9.50;;;8.40;;
17864;SDS011;9058;52.018;4.202;2023-01-28T03:30:44;8.27;;;7.47;;
17864;SDS011;9058;52.018;4.202;2023-01-28T03:33:35;8.37;;;6.90;;
17864;SDS011;9058;52.018;4.202;2023-01-28T03:36:19;8.10;;;7.10;;
17864;SDS011;9058;52.018;4.202;2023-01-28T03:39:04;9.80;;;8.17;;
17864;SDS011;9058;52.018;4.202;2023-01-28T03:41:30;8.80;;;6.93;;
17864;SDS011;9058;52.018;4.202;2023-01-28T03:43:56;8.50;;;7.50;;
17864;SDS011;9058;52.018;4.202;2023-01-28T03:46:37;8.43;;;7.53;;
17864;SDS011;9058;52.018;4.202;2023-01-28T03:49:05;8.23;;;7.43;;
17864;SDS011;9058;52.018;4.202;2023-01-28T03:51:32;9.20;;;7.53;;
17864;SDS011;9058;52.018;4.202;2023-01-28T03:53:58;8.80;;;7.90;;
17864;SDS011;9058;52.018;4.202;2023-01-28T03:56:24;9.60;;;7.53;;
17864;SDS011;9058;52.018;4.202;2023-01-28T03:58:52;7.93;;;7.23;;
17864;SDS011;9058;52.018;4.202;2023-01-28T04:01:20;8.40;;;6.93;;
17864;SDS011;9058;52.018;4.202;2023-01-28T04:03:47;8.70;;;6.97;;
17864;SDS011;9058;52.018;4.202;2023-01-28T04:06:16;7.43;;;6.63;;
17864;SDS011;9058;52.018;4.202;2023-01-28T04:08:43;7.33;;;6.53;;
17864;SDS011;9058;52.018;4.202;2023-01-28T04:11:14;7.57;;;6.57;;
17864;SDS011;9058;52.018;4.202;2023-01-28T04:13:43;7.30;;;6.60;;
17864;SDS011;9058;52.018;4.202;2023-01-28T04:16:09;5.57;;;4.93;;
17864;SDS011;9058;52.018;4.202;2023-01-28T04:18:36;7.30;;;6.60;;
17864;SDS011;9058;52.018;4.202;2023-01-28T04:21:05;8.67;;;6.17;;
17864;SDS011;9058;52.018;4.202;2023-01-28T04:23:32;7.07;;;6.13;;
17864;SDS011;9058;52.018;4.202;2023-01-28T04:25:59;7.37;;;6.57;;
17864;SDS011;9058;52.018;4.202;2023-01-28T04:28:28;7.77;;;6.33;;
17864;SDS011;9058;52.018;4.202;2023-01-28T04:30:54;7.90;;;6.50;;
17864;SDS011;9058;52.018;4.202;2023-01-28T04:33:20;8.57;;;6.13;;
17864;SDS011;9058;52.018;4.202;2023-01-28T04:35:47;7.80;;;5.83;;
17864;SDS011;9058;52.018;4.202;2023-01-28T04:38:13;9.43;;;7.37;;
17864;SDS011;9058;52.018;4.202;2023-01-28T04:40:41;7.93;;;6.90;;
17864;SDS011;9058;52.018;4.202;2023-01-28T04:43:07;7.87;;;6.97;;
17864;SDS011;9058;52.018;4.202;2023-01-28T04:45:34;7.37;;;6.50;;
17864;SDS011;9058;52.018;4.202;2023-01-28T04:48:00;7.73;;;6.53;;
17864;SDS011;9058;52.018;4.202;2023-01-28T04:50:26;7.03;;;6.33;;
17864;SDS011;9058;52.018;4.202;2023-01-28T04:52:53;7.27;;;6.50;;
17864;SDS011;9058;52.018;4.202;2023-01-28T04:55:20;8.93;;;6.90;;
17864;SDS011;9058;52.018;4.202;2023-01-28T04:57:48;9.17;;;7.07;;
17864;SDS011;9058;52.018;4.202;2023-01-28T05:00:14;9.20;;;6.83;;
17864;SDS011;9058;52.018;4.202;2023-01-28T05:02:41;10.17;;;6.27;;
17864;SDS011;9058;52.018;4.202;2023-01-28T05:05:07;9.67;;;7.50;;
17864;SDS011;9058;52.018;4.202;2023-01-28T05:07:34;9.23;;;7.57;;
17864;SDS011;9058;52.018;4.202;2023-01-28T05:10:00;7.63;;;6.80;;
17864;SDS011;9058;52.018;4.202;2023-01-28T05:12:27;8.83;;;7.63;;
17864;SDS011;9058;52.018;4.202;2023-01-28T05:14:56;9.60;;;7.30;;
17864;SDS011;9058;52.018;4.202;2023-01-28T05:17:24;7.70;;;6.93;;
17864;SDS011;9058;52.018;4.202;2023-01-28T05:19:50;7.53;;;6.77;;
17864;SDS011;9058;52.018;4.202;2023-01-28T05:22:17;7.37;;;6.67;;
17864;SDS011;9058;52.018;4.202;2023-01-28T05:24:43;9.53;;;7.17;;
17864;SDS011;9058;52.018;4.202;2023-01-28T05:27:10;7.90;;;7.07;;
17864;SDS011;9058;52.018;4.202;2023-01-28T05:29:37;10.00;;;6.97;;
17864;SDS011;9058;52.018;4.202;2023-01-28T05:32:05;7.83;;;6.70;;
17864;SDS011;9058;52.018;4.202;2023-01-28T05:34:32;7.43;;;6.67;;
17864;SDS011;9058;52.018;4.202;2023-01-28T05:36:58;7.23;;;6.50;;
17864;SDS011;9058;52.018;4.202;2023-01-28T05:39:26;7.17;;;6.47;;
17864;SDS011;9058;52.018;4.202;2023-01-28T05:41:52;8.33;;;5.90;;
17864;SDS011;9058;52.018;4.202;2023-01-28T05:44:19;8.03;;;7.23;;
17864;SDS011;9058;52.018;4.202;2023-01-28T05:46:45;7.07;;;6.20;;
17864;SDS011;9058;52.018;4.202;2023-01-28T05:49:13;7.43;;;6.70;;
17864;SDS011;9058;52.018;4.202;2023-01-28T05:51:40;7.27;;;6.57;;
17864;SDS011;9058;52.018;4.202;2023-01-28T05:54:07;8.00;;;5.87;;
17864;SDS011;9058;52.018;4.202;2023-01-28T05:56:34;7.03;;;5.83;;
17864;SDS011;9058;52.018;4.202;2023-01-28T05:59:00;7.23;;;6.27;;
17864;SDS011;9058;52.018;4.202;2023-01-28T06:01:29;7.27;;;6.20;;
17864;SDS011;9058;52.018;4.202;2023-01-28T06:03:55;6.50;;;5.87;;
17864;SDS011;9058;52.018;4.202;2023-01-28T06:06:24;7.50;;;6.53;;
17864;SDS011;9058;52.018;4.202;2023-01-28T06:08:51;7.80;;;6.50;;
17864;SDS011;9058;52.018;4.202;2023-01-28T06:11:17;7.50;;;6.20;;
17864;SDS011;9058;52.018;4.202;2023-01-28T06:13:44;7.57;;;6.57;;
17864;SDS011;9058;52.018;4.202;2023-01-28T06:16:10;7.60;;;6.13;;
17864;SDS011;9058;52.018;4.202;2023-01-28T06:18:37;7.13;;;6.43;;
17864;SDS011;9058;52.018;4.202;2023-01-28T06:21:05;8.67;;;6.13;;
17864;SDS011;9058;52.018;4.202;2023-01-28T06:23:33;7.03;;;6.33;;
17864;SDS011;9058;52.018;4.202;2023-01-28T06:25:59;6.87;;;6.17;;
17864;SDS011;9058;52.018;4.202;2023-01-28T06:28:26;7.87;;;6.87;;
17864;SDS011;9058;52.018;4.202;2023-01-28T06:30:53;7.20;;;6.50;;
17864;SDS011;9058;52.018;4.202;2023-01-28T06:33:20;7.80;;;6.53;;
17864;SDS011;9058;52.018;4.202;2023-01-28T06:35:46;6.93;;;6.23;;
17864;SDS011;9058;52.018;4.202;2023-01-28T06:38:13;7.70;;;6.90;;
17864;SDS011;9058;52.018;4.202;2023-01-28T06:40:40;7.90;;;6.27;;
17864;SDS011;9058;52.018;4.202;2023-01-28T06:43:07;6.83;;;6.23;;
17864;SDS011;9058;52.018;4.202;2023-01-28T06:45:33;7.97;;;7.00;;
17864;SDS011;9058;52.018;4.202;2023-01-28T06:48:00;8.37;;;6.83;;
17864;SDS011;9058;52.018;4.202;2023-01-28T06:50:26;8.17;;;6.47;;
17864;SDS011;9058;52.018;4.202;2023-01-28T06:52:52;6.73;;;5.93;;
17864;SDS011;9058;52.018;4.202;2023-01-28T06:55:19;7.53;;;6.23;;
17864;SDS011;9058;52.018;4.202;2023-01-28T06:57:46;8.53;;;6.70;;
17864;SDS011;9058;52.018;4.202;2023-01-28T07:00:14;7.47;;;6.30;;
17864;SDS011;9058;52.018;4.202;2023-01-28T07:02:40;8.90;;;6.90;;
17864;SDS011;9058;52.018;4.202;2023-01-28T07:05:07;8.13;;;6.80;;
17864;SDS011;9058;52.018;4.202;2023-01-28T07:07:35;9.33;;;7.50;;
17864;SDS011;9058;52.018;4.202;2023-01-28T07:10:01;8.03;;;7.03;;
17864;SDS011;9058;52.018;4.202;2023-01-28T07:12:28;8.63;;;6.63;;
17864;SDS011;9058;52.018;4.202;2023-01-28T07:14:56;7.37;;;6.50;;
17864;SDS011;9058;52.018;4.202;2023-01-28T07:17:22;12.43;;;8.23;;
17864;SDS011;9058;52.018;4.202;2023-01-28T07:19:48;9.03;;;7.07;;
17864;SDS011;9058;52.018;4.202;2023-01-28T07:22:15;10.47;;;6.70;;
17864;SDS011;9058;52.018;4.202;2023-01-28T07:24:41;10.17;;;7.70;;
17864;SDS011;9058;52.018;4.202;2023-01-28T07:27:07;8.30;;;6.83;;
17864;SDS011;9058;52.018;4.202;2023-01-28T07:32:41;9.03;;;7.00;;
17864;SDS011;9058;52.018;4.202;2023-01-28T07:35:07;11.43;;;6.70;;
17864;SDS011;9058;52.018;4.202;2023-01-28T07:37:34;8.33;;;7.30;;
17864;SDS011;9058;52.018;4.202;2023-01-28T07:40:00;9.43;;;7.00;;
17864;SDS011;9058;52.018;4.202;2023-01-28T07:42:27;18.50;;;8.33;;
17864;SDS011;9058;52.018;4.202;2023-01-28T07:44:53;10.00;;;7.73;;
17864;SDS011;9058;52.018;4.202;2023-01-28T07:47:20;12.83;;;8.03;;
17864;SDS011;9058;52.018;4.202;2023-01-28T07:49:48;11.23;;;8.27;;
17864;SDS011;9058;52.018;4.202;2023-01-28T07:52:14;9.37;;;8.27;;
17864;SDS011;9058;52.018;4.202;2023-01-28T07:54:40;9.30;;;8.00;;
17864;SDS011;9058;52.018;4.202;2023-01-28T07:57:07;11.17;;;8.17;;
17864;SDS011;9058;52.018;4.202;2023-01-28T07:59:34;9.47;;;8.17;;
17864;SDS011;9058;52.018;4.202;2023-01-28T08:02:02;12.17;;;8.20;;
17864;SDS011;9058;52.018;4.202;2023-01-28T08:04:28;10.67;;;8.70;;
17864;SDS011;9058;52.018;4.202;2023-01-28T08:06:57;9.10;;;8.07;;
17864;SDS011;9058;52.018;4.202;2023-01-28T08:09:23;10.77;;;8.20;;
17864;SDS011;9058;52.018;4.202;2023-01-28T08:11:50;9.40;;;7.00;;
17864;SDS011;9058;52.018;4.202;2023-01-28T08:14:16;9.17;;;8.13;;
17864;SDS011;9058;52.018;4.202;2023-01-28T08:16:43;8.40;;;7.30;;
17864;SDS011;9058;52.018;4.202;2023-01-28T08:19:10;9.93;;;8.03;;
17864;SDS011;9058;52.018;4.202;2023-01-28T08:21:36;10.73;;;8.03;;
17864;SDS011;9058;52.018;4.202;2023-01-28T08:24:04;11.50;;;8.30;;
17864;SDS011;9058;52.018;4.202;2023-01-28T08:26:30;10.00;;;8.47;;
17864;SDS011;9058;52.018;4.202;2023-01-28T08:28:56;11.33;;;8.57;;
17864;SDS011;9058;52.018;4.202;2023-01-28T08:31:23;8.90;;;7.80;;
17864;SDS011;9058;52.018;4.202;2023-01-28T08:33:49;8.33;;;7.13;;
17864;SDS011;9058;52.018;4.202;2023-01-28T08:36:17;9.77;;;7.60;;
17864;SDS011;9058;52.018;4.202;2023-01-28T08:38:45;9.27;;;7.70;;
17864;SDS011;9058;52.018;4.202;2023-01-28T08:41:13;9.90;;;7.57;;
17864;SDS011;9058;52.018;4.202;2023-01-28T08:43:39;8.93;;;7.40;;
17864;SDS011;9058;52.018;4.202;2023-01-28T08:46:06;8.30;;;7.47;;
17864;SDS011;9058;52.018;4.202;2023-01-28T08:48:32;10.10;;;7.90;;
17864;SDS011;9058;52.018;4.202;2023-01-28T08:50:59;10.00;;;7.13;;
17864;SDS011;9058;52.018;4.202;2023-01-28T08:53:25;10.57;;;8.47;;
17864;SDS011;9058;52.018;4.202;2023-01-28T08:55:52;10.90;;;7.70;;
17864;SDS011;9058;52.018;4.202;2023-01-28T08:58:20;8.90;;;7.87;;
17864;SDS011;9058;52.018;4.202;2023-01-28T09:00:47;8.97;;;7.63;;
17864;SDS011;9058;52.018;4.202;2023-01-28T09:03:13;8.20;;;7.03;;
17864;SDS011;9058;52.018;4.202;2023-01-28T09:05:40;8.67;;;7.77;;
17864;SDS011;9058;52.018;4.202;2023-01-28T09:08:07;9.03;;;7.90;;
17864;SDS011;9058;52.018;4.202;2023-01-28T09:10:33;10.17;;;8.60;;
17864;SDS011;9058;52.018;4.202;2023-01-28T09:13:03;8.57;;;7.60;;
17864;SDS011;9058;52.018;4.202;2023-01-28T09:15:31;10.83;;;7.30;;
17864;SDS011;9058;52.018;4.202;2023-01-28T09:17:57;8.97;;;7.40;;
17864;SDS011;9058;52.018;4.202;2023-01-28T09:20:23;7.20;;;6.50;;
17864;SDS011;9058;52.018;4.202;2023-01-28T09:22:50;9.53;;;6.73;;
17864;SDS011;9058;52.018;4.202;2023-01-28T09:25:16;7.60;;;6.80;;
17864;SDS011;9058;52.018;4.202;2023-01-28T09:27:43;9.47;;;7.40;;
17864;SDS011;9058;52.018;4.202;2023-01-28T09:30:09;9.87;;;7.03;;
17864;SDS011;9058;52.018;4.202;2023-01-28T09:32:39;9.27;;;7.27;;
17864;SDS011;9058;52.018;4.202;2023-01-28T09:35:06;11.77;;;7.43;;
17864;SDS011;9058;52.018;4.202;2023-01-28T09:37:33;12.73;;;7.20;;
17864;SDS011;9058;52.018;4.202;2023-01-28T09:39:59;10.57;;;7.97;;
17864;SDS011;9058;52.018;4.202;2023-01-28T09:42:31;7.93;;;7.13;;
17864;SDS011;9058;52.018;4.202;2023-01-28T09:45:05;7.70;;;7.00;;
17864;SDS011;9058;52.018;4.202;2023-01-28T09:47:35;8.63;;;7.77;;
17864;SDS011;9058;52.018;4.202;2023-01-28T09:50:05;9.23;;;7.70;;
17864;SDS011;9058;52.018;4.202;2023-01-28T09:52:33;9.00;;;7.60;;
17864;SDS011;9058;52.018;4.202;2023-01-28T09:55:01;7.78;;;6.97;;
17864;SDS011;9058;52.018;4.202;2023-01-28T09:57:29;8.90;;;7.97;;
17864;SDS011;9058;52.018;4.202;2023-01-28T09:59:57;9.05;;;7.63;;
17864;SDS011;9058;52.018;4.202;2023-01-28T10:02:32;8.10;;;7.32;;
17864;SDS011;9058;52.018;4.202;2023-01-28T10:05:02;10.07;;;9.07;;
17864;SDS011;9058;52.018;4.202;2023-01-28T10:07:35;12.13;;;10.57;;
17864;SDS011;9058;52.018;4.202;2023-01-28T10:10:08;12.60;;;11.18;;
17864;SDS011;9058;52.018;4.202;2023-01-28T10:12:39;12.75;;;11.43;;
17864;SDS011;9058;52.018;4.202;2023-01-28T10:17:48;12.03;;;10.57;;
17864;SDS011;9058;52.018;4.202;2023-01-28T10:20:17;11.85;;;10.63;;
17864;SDS011;9058;52.018;4.202;2023-01-28T10:22:47;11.38;;;10.20;;
17864;SDS011;9058;52.018;4.202;2023-01-28T10:25:16;11.77;;;10.17;;
17864;SDS011;9058;52.018;4.202;2023-01-28T10:27:43;13.32;;;11.77;;
17864;SDS011;9058;52.018;4.202;2023-01-28T10:30:14;12.60;;;10.85;;
17864;SDS011;9058;52.018;4.202;2023-01-28T10:32:42;13.13;;;11.73;;
17864;SDS011;9058;52.018;4.202;2023-01-28T10:35:11;15.02;;;11.75;;
17864;SDS011;9058;52.018;4.202;2023-01-28T10:37:38;16.27;;;13.30;;
17864;SDS011;9058;52.018;4.202;2023-01-28T10:40:11;14.85;;;13.35;;
17864;SDS011;9058;52.018;4.202;2023-01-28T10:42:39;15.88;;;12.50;;
17864;SDS011;9058;52.018;4.202;2023-01-28T10:45:06;12.55;;;11.32;;
17864;SDS011;9058;52.018;4.202;2023-01-28T10:47:41;13.57;;;11.82;;
17864;SDS011;9058;52.018;4.202;2023-01-28T10:50:10;12.45;;;11.15;;
17864;SDS011;9058;52.018;4.202;2023-01-28T10:52:49;10.88;;;9.68;;
17864;SDS011;9058;52.018;4.202;2023-01-28T10:55:18;11.88;;;10.35;;
17864;SDS011;9058;52.018;4.202;2023-01-28T10:57:44;11.57;;;9.88;;
17864;SDS011;9058;52.018;4.202;2023-01-28T11:00:11;9.45;;;8.55;;
17864;SDS011;9058;52.018;4.202;2023-01-28T11:02:38;8.70;;;7.43;;
17864;SDS011;9058;52.018;4.202;2023-01-28T11:05:06;7.80;;;7.10;;
17864;SDS011;9058;52.018;4.202;2023-01-28T11:07:33;6.90;;;6.30;;
17864;SDS011;9058;52.018;4.202;2023-01-28T11:09:59;8.70;;;6.82;;
17864;SDS011;9058;52.018;4.202;2023-01-28T11:12:27;9.38;;;6.55;;
17864;SDS011;9058;52.018;4.202;2023-01-28T11:14:55;7.45;;;6.65;;
17864;SDS011;9058;52.018;4.202;2023-01-28T11:17:22;7.80;;;6.50;;
17864;SDS011;9058;52.018;4.202;2023-01-28T11:19:49;8.05;;;7.03;;
17864;SDS011;9058;52.018;4.202;2023-01-28T11:22:20;8.43;;;6.72;;
17864;SDS011;9058;52.018;4.202;2023-01-28T11:24:47;9.23;;;7.70;;
17864;SDS011;9058;52.018;4.202;2023-01-28T11:27:14;7.75;;;6.85;;
17864;SDS011;9058;52.018;4.202;2023-01-28T11:29:43;7.97;;;7.18;;
17864;SDS011;9058;52.018;4.202;2023-01-28T11:32:16;7.97;;;6.18;;
17864;SDS011;9058;52.018;4.202;2023-01-28T11:34:47;6.82;;;5.25;;
17864;SDS011;9058;52.018;4.202;2023-01-28T11:37:15;8.43;;;5.38;;
17864;SDS011;9058;52.018;4.202;2023-01-28T11:39:41;7.60;;;5.82;;
17864;SDS011;9058;52.018;4.202;2023-01-28T11:42:10;8.18;;;7.38;;
17864;SDS011;9058;52.018;4.202;2023-01-28T11:44:36;8.63;;;7.82;;
17864;SDS011;9058;52.018;4.202;2023-01-28T11:47:09;8.23;;;7.43;;
17864;SDS011;9058;52.018;4.202;2023-01-28T11:49:41;8.70;;;7.22;;
17864;SDS011;9058;52.018;4.202;2023-01-28T11:52:14;9.00;;;8.00;;
17864;SDS011;9058;52.018;4.202;2023-01-28T11:54:46;8.75;;;7.93;;
17864;SDS011;9058;52.018;4.202;2023-01-28T11:57:20;9.05;;;8.15;;
17864;SDS011;9058;52.018;4.202;2023-01-28T11:59:52;9.23;;;8.15;;
17864;SDS011;9058;52.018;4.202;2023-01-28T12:02:27;8.48;;;7.60;;
17864;SDS011;9058;52.018;4.202;2023-01-28T12:05:03;8.13;;;7.28;;
17864;SDS011;9058;52.018;4.202;2023-01-28T12:07:35;9.23;;;8.32;;
17864;SDS011;9058;52.018;4.202;2023-01-28T12:10:06;9.13;;;8.02;;
17864;SDS011;9058;52.018;4.202;2023-01-28T12:12:41;8.98;;;7.75;;
17864;SDS011;9058;52.018;4.202;2023-01-28T12:15:16;8.32;;;7.35;;
17864;SDS011;9058;52.018;4.202;2023-01-28T12:17:51;9.40;;;8.48;;
17864;SDS011;9058;52.018;4.202;2023-01-28T12:20:21;9.60;;;8.68;;
17864;SDS011;9058;52.018;4.202;2023-01-28T12:22:59;9.23;;;8.23;;
17864;SDS011;9058;52.018;4.202;2023-01-28T12:25:35;10.50;;;6.15;;
17864;SDS011;9058;52.018;4.202;2023-01-28T12:28:07;8.30;;;6.10;;
17864;SDS011;9058;52.018;4.202;2023-01-28T12:30:43;7.65;;;5.70;;
17864;SDS011;9058;52.018;4.202;2023-01-28T12:33:20;7.20;;;5.70;;
17864;SDS011;9058;52.018;4.202;2023-01-28T12:35:56;8.73;;;5.63;;
17864;SDS011;9058;52.018;4.202;2023-01-28T12:38:33;7.45;;;5.47;;
17864;SDS011;9058;52.018;4.202;2023-01-28T12:41:03;7.55;;;6.07;;
17864;SDS011;9058;52.018;4.202;2023-01-28T12:43:41;7.93;;;5.45;;
17864;SDS011;9058;52.018;4.202;2023-01-28T12:46:11;7.88;;;6.25;;
17864;SDS011;9058;52.018;4.202;2023-01-28T12:48:40;7.05;;;5.35;;
17864;SDS011;9058;52.018;4.202;2023-01-28T12:51:09;9.13;;;6.57;;
17864;SDS011;9058;52.018;4.202;2023-01-28T12:53:39;12.43;;;7.85;;
17864;SDS011;9058;52.018;4.202;2023-01-28T12:56:07;7.18;;;5.50;;
17864;SDS011;9058;52.018;4.202;2023-01-28T12:58:40;6.88;;;5.53;;
17864;SDS011;9058;52.018;4.202;2023-01-28T13:01:13;9.02;;;6.30;;
17864;SDS011;9058;52.018;4.202;2023-01-28T13:03:42;7.88;;;6.25;;
17864;SDS011;9058;52.018;4.202;2023-01-28T13:06:14;7.82;;;5.85;;
17864;SDS011;9058;52.018;4.202;2023-01-28T13:08:42;7.75;;;6.15;;
17864;SDS011;9058;52.018;4.202;2023-01-28T13:11:10;7.78;;;6.10;;
17864;SDS011;9058;52.018;4.202;2023-01-28T13:13:38;9.23;;;6.35;;
17864;SDS011;9058;52.018;4.202;2023-01-28T13:16:07;10.73;;;7.60;;
17864;SDS011;9058;52.018;4.202;2023-01-28T13:18:40;6.93;;;6.22;;
17864;SDS011;9058;52.018;4.202;2023-01-28T13:21:13;8.18;;;6.18;;
17864;SDS011;9058;52.018;4.202;2023-01-28T13:23:41;9.43;;;7.90;;
17864;SDS011;9058;52.018;4.202;2023-01-28T13:31:18;11.63;;;9.02;;
17864;SDS011;9058;52.018;4.202;2023-01-28T13:33:59;8.75;;;6.85;;
17864;SDS011;9058;52.018;4.202;2023-01-28T13:39:17;5.93;;;5.40;;
17864;SDS011;9058;52.018;4.202;2023-01-28T13:42:07;6.57;;;5.68;;
17864;SDS011;9058;52.018;4.202;2023-01-28T13:44:41;7.88;;;5.93;;
17864;SDS011;9058;52.018;4.202;2023-01-28T13:47:13;7.45;;;5.70;;
17864;SDS011;9058;52.018;4.202;2023-01-28T13:49:43;6.43;;;5.03;;
17864;SDS011;9058;52.018;4.202;2023-01-28T13:52:25;6.82;;;5.10;;
17864;SDS011;9058;52.018;4.202;2023-01-28T14:03:56;4.72;;;4.25;;
17864;SDS011;9058;52.018;4.202;2023-01-28T14:06:35;7.78;;;4.30;;
17864;SDS011;9058;52.018;4.202;2023-01-28T14:09:17;4.25;;;3.40;;
17864;SDS011;9058;52.018;4.202;2023-01-28T14:11:54;5.15;;;4.30;;
17864;SDS011;9058;52.018;4.202;2023-01-28T14:14:30;4.50;;;3.95;;
17864;SDS011;9058;52.018;4.202;2023-01-28T14:17:02;4.20;;;3.55;;
17864;SDS011;9058;52.018;4.202;2023-01-28T14:19:34;7.55;;;3.20;;
17864;SDS011;9058;52.018;4.202;2023-01-28T14:22:05;6.60;;;3.35;;
17864;SDS011;9058;52.018;4.202;2023-01-28T14:24:31;4.20;;;3.53;;
17864;SDS011;9058;52.018;4.202;2023-01-28T14:26:59;4.55;;;3.67;;
17864;SDS011;9058;52.018;4.202;2023-01-28T14:29:36;4.32;;;3.13;;
17864;SDS011;9058;52.018;4.202;2023-01-28T14:32:10;4.60;;;3.83;;
17864;SDS011;9058;52.018;4.202;2023-01-28T14:34:39;3.80;;;3.40;;
17864;SDS011;9058;52.018;4.202;2023-01-28T14:37:08;6.13;;;3.30;;
17864;SDS011;9058;52.018;4.202;2023-01-28T14:39:39;4.75;;;3.42;;
17864;SDS011;9058;52.018;4.202;2023-01-28T14:42:10;3.88;;;3.10;;
17864;SDS011;9058;52.018;4.202;2023-01-28T14:44:39;6.57;;;2.83;;
17864;SDS011;9058;52.018;4.202;2023-01-28T14:47:13;3.63;;;2.78;;
17864;SDS011;9058;52.018;4.202;2023-01-28T14:49:49;3.37;;;2.63;;
17864;SDS011;9058;52.018;4.202;2023-01-28T14:52:26;3.58;;;2.60;;
17864;SDS011;9058;52.018;4.202;2023-01-28T14:55:00;3.95;;;3.45;;
17864;SDS011;9058;52.018;4.202;2023-01-28T14:57:36;3.60;;;3.13;;
17864;SDS011;9058;52.018;4.202;2023-01-28T15:00:13;2.60;;;2.35;;
17864;SDS011;9058;52.018;4.202;2023-01-28T15:02:42;1.80;;;1.70;;
17864;SDS011;9058;52.018;4.202;2023-01-28T15:05:13;5.97;;;1.88;;
17864;SDS011;9058;52.018;4.202;2023-01-28T15:07:42;3.55;;;1.98;;
17864;SDS011;9058;52.018;4.202;2023-01-28T15:10:13;2.80;;;1.50;;
17864;SDS011;9058;52.018;4.202;2023-01-28T15:12:40;3.10;;;1.70;;
17864;SDS011;9058;52.018;4.202;2023-01-28T15:15:08;4.45;;;1.80;;
17864;SDS011;9058;52.018;4.202;2023-01-28T15:17:35;2.63;;;1.98;;
17864;SDS011;9058;52.018;4.202;2023-01-28T15:20:02;3.67;;;1.80;;
17864;SDS011;9058;52.018;4.202;2023-01-28T15:22:30;2.03;;;1.67;;
17864;SDS011;9058;52.018;4.202;2023-01-28T15:24:56;3.78;;;1.80;;
17864;SDS011;9058;52.018;4.202;2023-01-28T15:27:25;1.85;;;1.40;;
17864;SDS011;9058;52.018;4.202;2023-01-28T15:29:54;2.83;;;1.42;;